• Join FlightAware (Why Join?)
  • Login
  • US Flag 
10:10AM EDT


 

Airport Tracker/Info


-or-


 

Live Flight TrackerFlight Track Log ✈ ASQ5678 ✈ 06-Jan-2014 ✈ KEWR - KCVG

Flight Track Log - Related Links

Times and Time Zones

All times are in EST time to prevent confusion due to time zone crossing. See the ASQ5678 flight status page for this flight to view local times or setup timezone preferences in your user account.

Time Position Orientation Groundspeed Altitude Reporting Facility
EST Latitude Longitude Course Direction KTS MPH feet Rate Location/Type
03:17PM 40.6500 -74.2000 270° West 191 220 2,000  Level New York TRACON
03:18PM 40.6500 -74.2833 270° West 226 260 3,800 1,860 Climbing New York TRACON
03:19PM 40.6500 -74.3667 270° West 236 272 5,800 2,520 Climbing New York TRACON
03:20PM 40.6500 -74.4500 270° West 219 252 8,600 2,040 Climbing New York TRACON
03:22PM 40.6567 -74.5733 274° West 215 247 11,200 1,260 Climbing New York Center
03:23PM 40.6619 -74.6639 274° West 244 281 11,900 600 Climbing New York Center
03:24PM 40.6689 -74.7711 275° West 282 325 12,500 660 Climbing New York Center
03:25PM 40.6733 -74.8808 273° West 299 344 13,300 840 Climbing New York Center
03:26PM 40.6783 -74.9794 274° West 313 360 14,200 900 Climbing New York Center
03:27PM 40.6764 -75.0889 269° West 303 349 15,200 960 Climbing New York Center
03:28PM 40.6356 -75.1819 240° Southwest 274 315 16,200 900 Climbing New York Center
03:29PM 40.5992 -75.2617 239° Southwest 269 310 17,100 1,020 Climbing New York Center
03:30PM 40.5650 -75.3333 238° Southwest 269 310 18,300 960 Climbing New York Center
03:31PM 40.5286 -75.4128 239° Southwest 269 310 19,100 780 Climbing New York Center
03:32PM 40.4919 -75.4950 240° Southwest 263 303 19,900 720 Climbing New York Center
03:33PM 40.4553 -75.5797 240° Southwest 263 303 20,600 780 Climbing New York Center
03:34PM 40.4119 -75.6694 238° Southwest 263 303 21,500 780 Climbing New York Center
03:35PM 40.3753 -75.7511 240° Southwest 263 303 22,200 660 Climbing New York Center
03:36PM 40.3386 -75.8247 237° Southwest 263 303 22,900 720 Climbing New York Center
03:37PM 40.2953 -75.9169 238° Southwest 263 303 23,700 720 Climbing New York Center
03:38PM 40.2583 -75.9986 239° Southwest 263 303 24,400 720 Climbing New York Center
03:39PM 40.2192 -76.0772 237° Southwest 263 303 25,200 720 Climbing New York Center
03:40PM 40.1822 -76.1586 239° Southwest 263 303 25,900 720 Climbing New York Center
03:41PM 40.1472 -76.2400 241° Southwest 266 306 26,700 720 Climbing New York Center
03:42PM 40.1106 -76.3131 237° Southwest 261 300 27,400 540 Climbing New York Center
03:43PM 40.0756 -76.3892 239° Southwest 256 295 27,800 420 Climbing New York Center
03:44PM 40.0406 -76.4675 240° Southwest 256 295 28,300 420 Climbing New York Center
03:45PM 40.0033 -76.5458 238° Southwest 256 295 28,700 420 Climbing New York Center
03:46PM 39.9683 -76.6242 240° Southwest 256 295 29,200 420 Climbing New York Center
03:47PM 39.9311 -76.6997 237° Southwest 256 295 29,600 420 Climbing New York Center
03:48PM 39.8936 -76.7803 239° Southwest 261 300 30,100 420 Climbing New York Center
03:49PM 39.8656 -76.8428 240° Southwest 261 300 30,500 360 Climbing New York Center
03:50PM 39.8186 -76.9367 237° Southwest 258 297 31,000 660 Climbing Washington Center
03:51PM 39.7803 -77.0144 237° Southwest 258 297 32,000 900 Climbing Washington Center
03:52PM 39.7461 -77.0892 239° Southwest 252 290 32,900 720 Climbing Washington Center
03:53PM 39.7139 -77.1614 240° Southwest 252 290 33,500 600 Climbing Washington Center
03:54PM 39.6775 -77.2361 238° Southwest 246 283 34,100 540 Climbing Washington Center
03:55PM 39.6453 -77.3056 239° Southwest 246 283 34,600 480 Climbing Washington Center
03:56PM 39.6108 -77.3772 238° Southwest 246 283 35,100 540 Climbing Washington Center
03:57PM 39.5764 -77.4492 238° Southwest 246 283 35,700 420 Climbing Washington Center
03:58PM 39.5419 -77.5211 238° Southwest 246 283 36,000 120 Climbing Washington Center
03:59PM 39.5053 -77.5953 237° Southwest 246 283 36,000  Level Washington Center
04:00PM 39.4686 -77.6750 239° Southwest 251 289 36,000  Level Washington Center
04:01PM 39.4297 -77.7572 239° Southwest 261 300 36,000  Level Washington Center
04:02PM 39.3883 -77.8419 238° Southwest 267 307 36,000  Level Washington Center
04:03PM 39.3514 -77.9292 241° Southwest 273 314 36,000  Level Washington Center
04:04PM 39.3183 -78.0167 244° Southwest 273 314 36,000  Level Washington Center
04:05PM 39.2833 -78.1042 243° Southwest 273 314 36,000  Level Washington Center
04:06PM 39.2481 -78.1939 243° Southwest 278 320 36,000  Level Washington Center
04:07PM 39.2128 -78.2811 242° Southwest 278 320 36,000  Level Washington Center
04:08PM 39.1772 -78.3708 243° Southwest 278 320 36,000  Level Washington Center
04:09PM 39.1419 -78.4578 242° Southwest 283 326 36,000  Level Washington Center
04:10PM 39.1064 -78.5475 243° Southwest 283 326 36,000  Level Washington Center
04:11PM 39.0686 -78.6367 241° Southwest 283 326 36,000  Level Washington Center
04:12PM 39.0331 -78.7289 244° Southwest 278 320 36,000  Level Washington Center
04:13PM 38.9953 -78.8153 241° Southwest 278 320 36,000  Level Washington Center
04:14PM 38.9594 -78.9072 243° Southwest 278 320 36,000  Level Washington Center
04:15PM 38.9214 -78.9989 242° Southwest 283 326 36,000  Level Washington Center
04:16PM 38.8856 -79.0906 243° Southwest 283 326 36,000  Level Washington Center
04:17PM 38.8453 -79.1819 241° Southwest 283 326 36,000  Level Washington Center
04:18PM 38.8378 -79.2936 265° West 296 341 36,000  Level Washington Center
04:19PM 38.8364 -79.4028 269° West 302 348 36,000  Level Washington Center
04:20PM 38.8328 -79.5119 268° West 307 353 36,000  Level Washington Center
04:21PM 38.8333 -79.6264 270° West 312 359 36,000  Level Washington Center
04:22PM 38.8311 -79.7489 269° West 312 359 36,000  Level Washington Center
04:23PM 38.8275 -79.8553 268° West 312 359 36,000  Level Washington Center
04:24PM 38.8256 -79.9619 269° West 312 359 36,000 -240 Level Washington Center
04:25PM 38.8214 -80.0736 267° West 312 359 35,600 -420 Descending Washington Center
04:27PM 38.8164 -80.2244 268° West 309 356 35,000 -300 Descending Indianapolis Center
04:28PM 38.8142 -80.3356 269° West 313 360 35,000  Level Indianapolis Center
04:29PM 38.8100 -80.4494 267° West 318 366 35,000  Level Indianapolis Center
04:30PM 38.8067 -80.5667 268° West 325 374 35,000  Level Indianapolis Center
04:31PM 38.8031 -80.6817 268° West 327 376 35,000  Level Indianapolis Center
04:32PM 38.8003 -80.7969 268° West 323 372 35,000  Level Indianapolis Center
04:33PM 38.7958 -80.9117 267° West 323 372 35,000  Level Indianapolis Center
04:34PM 38.7922 -81.0272 268° West 324 373 35,000 -300 Level Indianapolis Center
04:35PM 38.7883 -81.1417 268° West 322 371 34,400 -660 Descending Indianapolis Center
04:36PM 38.7847 -81.2492 268° West 306 352 33,700 -840 Descending Indianapolis Center
04:37PM 38.7800 -81.3822 267° West 313 360 32,800 -840 Descending Indianapolis Center
04:38PM 38.7769 -81.4886 268° West 315 362 32,100 -420 Descending Indianapolis Center
04:39PM 38.7719 -81.6008 267° West 316 364 32,000 -60 Descending Indianapolis Center
04:40PM 38.7681 -81.7075 267° West 308 354 32,000  Level Indianapolis Center
04:41PM 38.7636 -81.8175 267° West 310 357 32,000 -480 Level Indianapolis Center
04:42PM 38.7589 -81.9289 267° West 313 360 31,100 -1,020 Descending Indianapolis Center
04:43PM 38.7450 -82.0669 263° West 323 372 30,000 -780 Descending Indianapolis Center
04:44PM 38.7158 -82.1725 251° West 317 365 29,600 -780 Descending Indianapolis Center
04:45PM 38.6875 -82.2800 251° West 318 366 28,500 -1,080 Descending Indianapolis Center
04:46PM 38.6581 -82.3883 251° West 320 368 27,500 -1,260 Descending Indianapolis Center
04:47PM 38.6281 -82.5025 251° West 335 386 26,000 -1,680 Descending Indianapolis Center
04:48PM 38.5981 -82.6164 251° West 338 389 24,100 -1,920 Descending Indianapolis Center
04:49PM 38.5664 -82.7303 250° West 340 391 22,100 -1,080 Descending Indianapolis Center
04:50PM 38.5347 -82.8478 251° West 348 400 22,000 -60 Descending Indianapolis Center
04:51PM 38.5031 -82.9625 251° West 345 397 22,000  Level Indianapolis Center
04:52PM 38.4708 -83.0961 253° West 339 390 22,000  Level Indianapolis Center
04:53PM 38.4858 -83.2181 279° West 348 400 22,000 -840 Level Indianapolis Center
04:54PM 38.5044 -83.3397 281° West 348 400 20,400 -1,800 Descending Indianapolis Center
04:55PM 38.5222 -83.4619 281° West 350 403 18,400 -1,860 Descending Indianapolis Center
04:56PM 38.5406 -83.5794 281° West 341 392 16,600 -1,860 Descending Indianapolis Center
04:57PM 38.5572 -83.6900 281° West 324 373 14,600 -1,980 Descending Indianapolis Center
04:58PM 38.5731 -83.8008 280° West 318 366 12,600 -1,800 Descending Indianapolis Center
04:59PM 38.5892 -83.9083 281° West 311 358 11,000 -840 Descending Indianapolis Center
05:00PM 38.6036 -84.0072 281° West 292 336 11,000  Level Indianapolis Center
05:01PM 38.6189 -84.1031 282° West 277 319 11,000  Level Indianapolis Center
05:02PM 38.6536 -84.1953 296° West 302 348 11,000 -300 Level Indianapolis Center
05:03PM 38.7269 -84.2350 337° Northwest 289 333 10,500 -780 Descending Indianapolis Center
05:04PM 38.7922 -84.2700 337° Northwest 256 295 9,500 -1,140 Descending Indianapolis Center
05:05PM 38.8517 -84.3028 337° Northwest 236 272 8,200 -1,380 Descending Indianapolis Center
05:06PM 38.9117 -84.3361 337° Northwest 235 270 6,800 -1,560 Descending Indianapolis Center
05:07PM 38.9817 -84.3725 338° Northwest 228 262 5,100 -1,080 Descending Indianapolis Center
05:08PM 39.0394 -84.4078 335° Northwest 228 262 4,700 -540 Descending Indianapolis Center
05:09PM 39.0486 -84.4714 281° West 230 265 4,000 -1,080 Descending Indianapolis Center
05:11PM 39.0500 -84.5833 271° West 136 157 2,000 -1,080 Descending Cincinnati TRACON
05:12PM 39.0500 -84.6333 270° West 94 108 1,300 -720 Descending Cincinnati TRACON